Time;durP1;ratioP1;P1;durP2;ratioP2;P2;SDS_P1;SDS_P2;PMS_P1;PMS_P2;Temp;Humidity;BMP_temperature;BMP_pressure;BME280_temperature;BME280_humidity;BME280_pressure;Samples;Min_cycle;Max_cycle;Signal;HPM_P1;HPM_P2
2024/02/21 00:12:45;;;;;;;22.40;8.10;;;;;;;7.54;100.00;100702.00;680442;1264;140687;-78
2024/02/21 00:27:53;;;;;;;71.80;25.00;;;;;;;7.64;100.00;100700.21;678403;1264;139729;-78
2024/02/21 00:43:00;;;;;;;108.50;34.70;;;;;;;7.64;100.00;100691.73;676429;1263;140328;-79
2024/02/21 00:58:03;;;;;;;44.00;15.40;;;;;;;7.63;100.00;100688.25;674614;1264;159812;-79
2024/02/21 01:13:07;;;;;;;27.00;9.30;;;;;;;7.53;100.00;100680.28;678267;1261;139438;-79
2024/02/21 01:28:11;;;;;;;16.50;7.60;;;;;;;7.57;100.00;100661.73;678956;1264;139259;-79
2024/02/21 01:43:19;;;;;;;27.90;9.30;;;;;;;7.53;100.00;100647.17;676956;1265;140281;-79
2024/02/21 01:58:23;;;;;;;26.10;9.80;;;;;;;7.47;100.00;100643.80;681126;1277;139225;-79
2024/02/21 02:13:27;;;;;;;11.80;6.00;;;;;;;7.39;100.00;100634.75;673868;1265;139314;-79
2024/02/21 02:28:31;;;;;;;27.40;10.30;;;;;;;7.43;100.00;100625.63;678176;1275;139254;-80
2024/02/21 02:43:36;;;;;;;27.70;12.30;;;;;;;7.51;100.00;100613.02;676082;1264;139781;-79
2024/02/21 02:58:40;;;;;;;22.00;9.10;;;;;;;7.49;100.00;100603.25;678237;1263;139582;-80
2024/02/21 03:13:43;;;;;;;20.80;8.80;;;;;;;7.46;100.00;100587.77;677246;1275;140439;-80
2024/02/21 03:28:48;;;;;;;30.00;12.20;;;;;;;7.51;100.00;100583.46;676162;1264;139067;-79
2024/02/21 03:43:51;;;;;;;30.10;11.70;;;;;;;7.53;100.00;100571.98;678987;1264;140493;-80
2024/02/21 03:58:55;;;;;;;29.40;12.80;;;;;;;7.64;100.00;100553.64;679804;1264;139360;-79
2024/02/21 04:13:58;;;;;;;32.20;11.30;;;;;;;7.70;100.00;100546.45;678652;1261;139944;-80
2024/02/21 04:29:02;;;;;;;34.60;12.60;;;;;;;7.68;100.00;100539.81;681589;1260;139229;-80
2024/02/21 04:44:06;;;;;;;29.60;12.70;;;;;;;7.71;100.00;100524.42;674928;1263;140801;-79
2024/02/21 04:59:10;;;;;;;49.60;17.90;;;;;;;7.75;100.00;100510.39;679988;1261;139710;-79
2024/02/21 05:14:13;;;;;;;48.00;18.30;;;;;;;7.77;100.00;100496.49;678968;1264;140229;-79
2024/02/21 05:29:18;;;;;;;50.20;21.20;;;;;;;7.77;100.00;100489.00;678649;1264;139841;-79
2024/02/21 05:44:22;;;;;;;35.00;14.30;;;;;;;7.80;100.00;100489.66;678972;1264;139042;-80
2024/02/21 05:59:25;;;;;;;55.10;21.30;;;;;;;7.84;100.00;100474.59;679102;1269;139441;-79
2024/02/21 06:14:29;;;;;;;49.50;18.00;;;;;;;7.89;100.00;100472.95;676923;1261;139788;-80
2024/02/21 06:29:33;;;;;;;49.90;24.10;;;;;;;7.91;100.00;100459.40;677550;1263;139337;-78
2024/02/21 06:44:40;;;;;;;40.80;18.20;;;;;;;7.86;100.00;100451.20;675714;1264;139580;-80
2024/02/21 06:59:43;;;;;;;43.70;17.50;;;;;;;7.98;100.00;100442.69;679605;1262;139542;-80
2024/02/21 07:14:47;;;;;;;45.30;17.60;;;;;;;8.05;100.00;100428.79;678111;1260;139012;-80
2024/02/21 07:29:52;;;;;;;49.50;19.00;;;;;;;8.15;100.00;100415.31;679294;1265;139235;-78
2024/02/21 07:44:56;;;;;;;58.90;22.50;;;;;;;8.29;100.00;100402.59;677082;1278;142468;-80
2024/02/21 08:00:00;;;;;;;56.50;22.00;;;;;;;8.43;100.00;100387.45;676714;1266;139195;-80
2024/02/21 08:15:29;;;;;;;100.60;43.00;;;;;;;8.65;100.00;100371.59;675086;1263;139402;-80
2024/02/21 08:30:34;;;;;;;63.00;27.00;;;;;;;8.85;100.00;100351.71;680493;1263;140006;-80
2024/02/21 08:45:38;;;;;;;55.00;22.50;;;;;;;8.66;100.00;100337.20;680637;1264;139091;-79
2024/02/21 09:00:43;;;;;;;57.00;23.40;;;;;;;8.60;100.00;100314.95;677934;1265;139618;-80
2024/02/21 09:15:48;;;;;;;63.80;25.20;;;;;;;8.71;100.00;100314.63;674873;1265;140733;-80
2024/02/21 09:30:53;;;;;;;58.30;25.00;;;;;;;8.69;100.00;100312.73;678030;1264;140496;-79
2024/02/21 09:45:58;;;;;;;59.40;27.70;;;;;;;8.82;100.00;100304.92;676454;1265;139555;-79
2024/02/21 10:01:06;;;;;;;55.40;25.80;;;;;;;8.82;100.00;100304.19;678494;1264;139555;-81
2024/02/21 10:16:27;;;;;;;50.80;27.70;;;;;;;8.92;100.00;100288.72;677241;1264;140539;-80
2024/02/21 10:31:32;;;;;;;42.50;19.50;;;;;;;9.04;100.00;100276.08;675239;1265;139051;-80
2024/02/21 10:46:39;;;;;;;39.00;20.70;;;;;;;8.96;100.00;100258.73;677098;1265;139309;-82
2024/02/21 11:01:45;;;;;;;52.10;23.30;;;;;;;8.88;100.00;100243.52;674386;1264;139575;-81
2024/02/21 11:17:03;;;;;;;119.00;50.60;;;;;;;8.98;100.00;100224.78;677456;1260;140187;-81
2024/02/21 11:32:14;;;;;;;50.20;25.80;;;;;;;8.99;100.00;100202.69;676059;1264;138970;-80
2024/02/21 11:47:19;;;;;;;47.40;24.30;;;;;;;9.05;100.00;100189.98;678730;1262;139619;-81
2024/02/21 12:02:24;;;;;;;43.60;20.50;;;;;;;9.13;100.00;100155.08;676494;1264;139248;-81
2024/02/21 12:17:29;;;;;;;88.60;52.00;;;;;;;9.43;100.00;100137.41;674366;1265;139585;-81
2024/02/21 12:32:33;;;;;;;38.10;20.20;;;;;;;9.55;100.00;100130.95;678795;1264;139583;-79
2024/02/21 12:47:40;;;;;;;39.50;20.80;;;;;;;9.56;100.00;100106.67;678231;1264;140445;-81
2024/02/21 13:02:46;;;;;;;47.70;23.50;;;;;;;9.41;100.00;100102.86;677834;1265;159380;-80
2024/02/21 13:17:51;;;;;;;119.00;48.60;;;;;;;9.53;100.00;100090.67;675054;1273;140871;-79
2024/02/21 13:32:55;;;;;;;52.90;26.20;;;;;;;9.57;100.00;100079.70;680749;1264;139844;-80
2024/02/21 13:47:59;;;;;;;50.10;24.60;;;;;;;9.68;100.00;100053.06;674868;1265;139087;-80
2024/02/21 14:03:03;;;;;;;34.30;16.50;;;;;;;9.74;100.00;100035.36;675930;1266;140137;-79
2024/02/21 14:18:09;;;;;;;39.70;21.20;;;;;;;9.73;100.00;100018.38;680578;1265;139685;-79
2024/02/21 14:33:13;;;;;;;36.60;18.00;;;;;;;9.74;100.00;99992.06;676604;1266;142223;-80
2024/02/21 14:48:17;;;;;;;39.00;18.30;;;;;;;9.63;100.00;99989.37;676526;1274;139556;-80
2024/02/21 15:03:21;;;;;;;40.50;20.10;;;;;;;9.65;100.00;99991.98;679285;1264;139012;-80
2024/02/21 15:18:25;;;;;;;32.50;15.30;;;;;;;9.68;100.00;99986.69;679442;1264;139910;-80
2024/02/21 15:33:29;;;;;;;33.60;16.60;;;;;;;9.72;100.00;99988.61;676024;1266;139549;-80
2024/02/21 15:48:34;;;;;;;39.40;17.90;;;;;;;9.68;100.00;99964.48;678203;1264;140348;-80
2024/02/21 16:03:40;;;;;;;45.10;20.00;;;;;;;9.67;100.00;99949.23;677554;1263;139070;-81
2024/02/21 16:18:46;;;;;;;34.30;17.70;;;;;;;9.67;100.00;99942.95;676332;1267;139304;-81
2024/02/21 16:33:50;;;;;;;40.10;19.10;;;;;;;9.66;100.00;99959.95;676538;1266;139269;-81
2024/02/21 16:48:54;;;;;;;38.20;17.90;;;;;;;9.66;100.00;99962.78;674248;1264;139997;-80
2024/02/21 17:03:58;;;;;;;42.60;20.30;;;;;;;9.78;100.00;99957.30;675366;1264;141160;-79
2024/02/21 17:19:05;;;;;;;30.30;16.10;;;;;;;10.02;100.00;99939.69;680394;1264;139373;-79
2024/02/21 17:34:09;;;;;;;40.70;17.90;;;;;;;10.02;100.00;99938.73;681708;1260;141154;-80
2024/02/21 17:49:16;;;;;;;35.50;14.90;;;;;;;10.04;100.00;99933.00;677628;1266;139327;-81
2024/02/21 18:04:20;;;;;;;60.90;24.20;;;;;;;9.80;100.00;99924.45;675145;1264;140279;-81
2024/02/21 18:19:24;;;;;;;33.30;18.10;;;;;;;9.92;100.00;99913.59;674734;1261;139604;-81
2024/02/21 18:34:28;;;;;;;43.20;20.00;;;;;;;9.83;100.00;99913.72;677645;1263;139739;-80
2024/02/21 18:49:31;;;;;;;43.10;19.40;;;;;;;9.83;100.00;99909.14;677625;1259;140393;-79
2024/02/21 19:04:37;;;;;;;43.10;19.10;;;;;;;9.93;100.00;99895.70;679437;1264;139904;-80
2024/02/21 19:19:44;;;;;;;74.40;30.90;;;;;;;9.98;100.00;99887.80;679860;1264;139751;-79
2024/02/21 19:34:48;;;;;;;33.50;17.20;;;;;;;10.08;100.00;99879.50;680823;1264;139850;-80
2024/02/21 19:49:52;;;;;;;47.20;20.20;;;;;;;9.99;100.00;99878.26;680051;1275;140951;-79
2024/02/21 20:04:56;;;;;;;47.40;22.10;;;;;;;9.97;100.00;99875.11;679370;1263;139578;-79
2024/02/21 20:20:03;;;;;;;49.80;21.60;;;;;;;9.86;100.00;99865.45;678225;1264;140314;-80
2024/02/21 20:35:08;;;;;;;36.30;16.00;;;;;;;9.88;100.00;99852.52;675362;1264;139524;-80
2024/02/21 20:50:14;;;;;;;42.00;19.20;;;;;;;9.91;100.00;99836.35;674957;1263;139627;-80
2024/02/21 21:05:20;;;;;;;35.00;15.70;;;;;;;9.94;100.00;99824.40;675970;1262;138974;-79
2024/02/21 21:20:28;;;;;;;35.10;15.10;;;;;;;9.91;100.00;99806.16;675281;1264;139845;-80
2024/02/21 21:35:32;;;;;;;40.70;16.90;;;;;;;9.82;100.00;99788.57;676526;1275;139362;-80
2024/02/21 21:50:40;;;;;;;32.40;16.40;;;;;;;9.69;100.00;99773.20;676902;1260;139848;-80
2024/02/21 22:05:43;;;;;;;32.20;15.70;;;;;;;9.73;100.00;99759.58;678439;1264;139158;-81
2024/02/21 22:20:48;;;;;;;33.20;15.30;;;;;;;9.75;100.00;99748.04;677723;1262;140159;-80
2024/02/21 22:35:52;;;;;;;34.00;17.20;;;;;;;9.70;100.00;99739.26;679248;1265;139167;-79
2024/02/21 22:50:57;;;;;;;33.00;16.20;;;;;;;9.71;100.00;99737.08;674784;1263;139301;-79
2024/02/21 23:06:02;;;;;;;42.10;18.20;;;;;;;9.67;100.00;99729.56;676755;1259;139262;-80
2024/02/21 23:21:11;;;;;;;31.90;16.30;;;;;;;9.65;100.00;99718.63;679758;1259;138999;-80
2024/02/21 23:36:15;;;;;;;40.30;18.60;;;;;;;9.66;100.00;99714.85;680133;1263;139295;-80
2024/02/21 23:51:19;;;;;;;34.30;19.00;;;;;;;9.63;100.00;99704.24;681063;1264;139254;-79
